Northwood, United Kingdom
Current Conditions -  °F | °C
As of 9:50 AM on Sunday 25 Jan 2015 (Local Time) from EGWU Reporting Station
Broken Clouds Broken Clouds  
Wind Chill: 34°   Ceiling: 3500
Heat Index: 34°   Visibility: 6mi
Dew Point: 32°   Wind: 2mph
Humidity: 93%   Direction: 220°SW
Pressure: 30.45"   Gusts: NA
Location:  51.61°N, 0.42°W
Report Text: EGWU 250950Z 22002KT 9999 BKN035 01/M00 Q1031 NOSIG
Loading
Personal Weather Stations






























Interactive Weather Map New forecast layout! Learn more

10-Day Weather Forecast

Advertisements
Track Severe Weather on mobile